sensor_id;sensor_type;location;lat;lon;timestamp;P1;durP1;ratioP1;P2;durP2;ratioP2
19985;SDS011;10154;52.474;10.768;2024-03-08T00:02:11;32.40;;;12.30;;
19985;SDS011;10154;52.474;10.768;2024-03-08T00:04:38;31.93;;;12.73;;
19985;SDS011;10154;52.474;10.768;2024-03-08T00:07:03;33.50;;;12.70;;
19985;SDS011;10154;52.474;10.768;2024-03-08T00:09:28;29.73;;;12.33;;
19985;SDS011;10154;52.474;10.768;2024-03-08T00:11:55;32.50;;;12.27;;
19985;SDS011;10154;52.474;10.768;2024-03-08T00:14:21;28.43;;;12.03;;
19985;SDS011;10154;52.474;10.768;2024-03-08T00:16:46;33.80;;;12.83;;
19985;SDS011;10154;52.474;10.768;2024-03-08T00:19:12;32.30;;;12.40;;
19985;SDS011;10154;52.474;10.768;2024-03-08T00:21:37;30.93;;;12.30;;
19985;SDS011;10154;52.474;10.768;2024-03-08T00:24:03;32.07;;;12.47;;
19985;SDS011;10154;52.474;10.768;2024-03-08T00:26:28;34.97;;;13.23;;
19985;SDS011;10154;52.474;10.768;2024-03-08T00:28:55;30.17;;;12.20;;
19985;SDS011;10154;52.474;10.768;2024-03-08T00:31:20;31.60;;;12.40;;
19985;SDS011;10154;52.474;10.768;2024-03-08T00:33:45;36.57;;;12.80;;
19985;SDS011;10154;52.474;10.768;2024-03-08T00:36:11;35.07;;;12.67;;
19985;SDS011;10154;52.474;10.768;2024-03-08T00:38:36;37.93;;;13.17;;
19985;SDS011;10154;52.474;10.768;2024-03-08T00:41:02;30.33;;;12.23;;
19985;SDS011;10154;52.474;10.768;2024-03-08T00:43:27;33.03;;;11.93;;
19985;SDS011;10154;52.474;10.768;2024-03-08T00:45:53;32.17;;;11.90;;
19985;SDS011;10154;52.474;10.768;2024-03-08T00:48:19;36.67;;;12.60;;
19985;SDS011;10154;52.474;10.768;2024-03-08T00:50:44;29.73;;;12.93;;
19985;SDS011;10154;52.474;10.768;2024-03-08T00:53:12;31.40;;;12.30;;
19985;SDS011;10154;52.474;10.768;2024-03-08T00:55:37;34.30;;;12.37;;
19985;SDS011;10154;52.474;10.768;2024-03-08T00:58:04;33.73;;;12.93;;
19985;SDS011;10154;52.474;10.768;2024-03-08T01:00:30;31.13;;;12.10;;
19985;SDS011;10154;52.474;10.768;2024-03-08T01:02:55;32.57;;;12.30;;
19985;SDS011;10154;52.474;10.768;2024-03-08T01:05:21;37.27;;;14.30;;
19985;SDS011;10154;52.474;10.768;2024-03-08T01:07:49;31.20;;;12.50;;
19985;SDS011;10154;52.474;10.768;2024-03-08T01:10:15;32.20;;;11.87;;
19985;SDS011;10154;52.474;10.768;2024-03-08T01:12:40;37.73;;;13.37;;
19985;SDS011;10154;52.474;10.768;2024-03-08T01:15:07;33.70;;;13.07;;
19985;SDS011;10154;52.474;10.768;2024-03-08T01:17:34;34.27;;;13.67;;
19985;SDS011;10154;52.474;10.768;2024-03-08T01:19:59;33.87;;;13.17;;
19985;SDS011;10154;52.474;10.768;2024-03-08T01:22:24;31.43;;;12.27;;
19985;SDS011;10154;52.474;10.768;2024-03-08T01:24:50;32.80;;;12.60;;
19985;SDS011;10154;52.474;10.768;2024-03-08T01:27:15;35.70;;;13.50;;
19985;SDS011;10154;52.474;10.768;2024-03-08T01:29:40;38.47;;;12.63;;
19985;SDS011;10154;52.474;10.768;2024-03-08T01:32:06;35.70;;;13.23;;
19985;SDS011;10154;52.474;10.768;2024-03-08T01:34:31;38.53;;;13.47;;
19985;SDS011;10154;52.474;10.768;2024-03-08T01:36:58;35.07;;;12.57;;
19985;SDS011;10154;52.474;10.768;2024-03-08T01:39:23;34.83;;;13.37;;
19985;SDS011;10154;52.474;10.768;2024-03-08T01:41:49;35.40;;;12.47;;
19985;SDS011;10154;52.474;10.768;2024-03-08T01:44:14;35.50;;;13.47;;
19985;SDS011;10154;52.474;10.768;2024-03-08T01:46:43;34.67;;;12.30;;
19985;SDS011;10154;52.474;10.768;2024-03-08T01:49:11;34.13;;;13.60;;
19985;SDS011;10154;52.474;10.768;2024-03-08T01:51:37;38.40;;;13.93;;
19985;SDS011;10154;52.474;10.768;2024-03-08T01:54:05;32.60;;;13.83;;
19985;SDS011;10154;52.474;10.768;2024-03-08T01:56:30;32.20;;;13.37;;
19985;SDS011;10154;52.474;10.768;2024-03-08T01:58:56;36.43;;;13.90;;
19985;SDS011;10154;52.474;10.768;2024-03-08T02:01:22;37.83;;;13.60;;
19985;SDS011;10154;52.474;10.768;2024-03-08T02:03:49;35.87;;;13.50;;
19985;SDS011;10154;52.474;10.768;2024-03-08T02:06:14;36.00;;;13.70;;
19985;SDS011;10154;52.474;10.768;2024-03-08T02:08:44;35.43;;;13.40;;
19985;SDS011;10154;52.474;10.768;2024-03-08T02:11:10;39.07;;;13.70;;
19985;SDS011;10154;52.474;10.768;2024-03-08T02:13:35;34.13;;;13.53;;
19985;SDS011;10154;52.474;10.768;2024-03-08T02:16:01;35.17;;;13.53;;
19985;SDS011;10154;52.474;10.768;2024-03-08T02:18:27;34.93;;;14.00;;
19985;SDS011;10154;52.474;10.768;2024-03-08T02:20:56;42.43;;;14.13;;
19985;SDS011;10154;52.474;10.768;2024-03-08T02:23:23;40.20;;;14.87;;
19985;SDS011;10154;52.474;10.768;2024-03-08T02:25:52;35.40;;;13.83;;
19985;SDS011;10154;52.474;10.768;2024-03-08T02:28:18;38.37;;;15.10;;
19985;SDS011;10154;52.474;10.768;2024-03-08T02:30:44;37.27;;;13.70;;
19985;SDS011;10154;52.474;10.768;2024-03-08T02:33:12;38.07;;;13.47;;
19985;SDS011;10154;52.474;10.768;2024-03-08T02:35:38;34.10;;;13.50;;
19985;SDS011;10154;52.474;10.768;2024-03-08T02:38:03;31.43;;;12.77;;
19985;SDS011;10154;52.474;10.768;2024-03-08T02:40:29;39.43;;;14.87;;
19985;SDS011;10154;52.474;10.768;2024-03-08T02:42:54;31.60;;;13.07;;
19985;SDS011;10154;52.474;10.768;2024-03-08T02:45:20;36.17;;;14.23;;
19985;SDS011;10154;52.474;10.768;2024-03-08T02:47:45;36.27;;;14.33;;
19985;SDS011;10154;52.474;10.768;2024-03-08T02:50:11;39.73;;;14.47;;
19985;SDS011;10154;52.474;10.768;2024-03-08T02:52:36;35.17;;;14.97;;
19985;SDS011;10154;52.474;10.768;2024-03-08T02:55:02;34.70;;;14.33;;
19985;SDS011;10154;52.474;10.768;2024-03-08T02:57:28;39.87;;;15.03;;
19985;SDS011;10154;52.474;10.768;2024-03-08T02:59:53;35.23;;;14.10;;
19985;SDS011;10154;52.474;10.768;2024-03-08T03:02:19;45.07;;;14.57;;
19985;SDS011;10154;52.474;10.768;2024-03-08T03:04:45;39.20;;;14.47;;
19985;SDS011;10154;52.474;10.768;2024-03-08T03:07:10;37.37;;;13.97;;
19985;SDS011;10154;52.474;10.768;2024-03-08T03:09:36;33.50;;;14.37;;
19985;SDS011;10154;52.474;10.768;2024-03-08T03:12:01;40.03;;;15.20;;
19985;SDS011;10154;52.474;10.768;2024-03-08T03:14:27;38.80;;;15.73;;
19985;SDS011;10154;52.474;10.768;2024-03-08T03:16:52;40.53;;;14.43;;
19985;SDS011;10154;52.474;10.768;2024-03-08T03:19:19;38.87;;;15.13;;
19985;SDS011;10154;52.474;10.768;2024-03-08T03:21:44;39.30;;;14.20;;
19985;SDS011;10154;52.474;10.768;2024-03-08T03:24:10;43.90;;;15.40;;
19985;SDS011;10154;52.474;10.768;2024-03-08T03:26:38;39.07;;;14.37;;
19985;SDS011;10154;52.474;10.768;2024-03-08T03:29:05;43.50;;;15.30;;
19985;SDS011;10154;52.474;10.768;2024-03-08T03:31:31;38.63;;;14.40;;
19985;SDS011;10154;52.474;10.768;2024-03-08T03:33:56;45.50;;;15.80;;
19985;SDS011;10154;52.474;10.768;2024-03-08T03:36:26;37.63;;;14.87;;
19985;SDS011;10154;52.474;10.768;2024-03-08T03:38:53;36.77;;;14.57;;
19985;SDS011;10154;52.474;10.768;2024-03-08T03:41:29;40.47;;;15.30;;
19985;SDS011;10154;52.474;10.768;2024-03-08T03:43:55;36.63;;;14.83;;
19985;SDS011;10154;52.474;10.768;2024-03-08T03:46:20;42.83;;;15.53;;
19985;SDS011;10154;52.474;10.768;2024-03-08T03:48:45;36.07;;;15.00;;
19985;SDS011;10154;52.474;10.768;2024-03-08T03:51:11;39.67;;;15.10;;
19985;SDS011;10154;52.474;10.768;2024-03-08T03:53:37;38.17;;;14.93;;
19985;SDS011;10154;52.474;10.768;2024-03-08T03:56:02;42.03;;;15.40;;
19985;SDS011;10154;52.474;10.768;2024-03-08T03:58:32;42.17;;;15.37;;
19985;SDS011;10154;52.474;10.768;2024-03-08T04:00:57;40.93;;;16.00;;
19985;SDS011;10154;52.474;10.768;2024-03-08T04:03:23;41.67;;;15.40;;
19985;SDS011;10154;52.474;10.768;2024-03-08T04:05:48;39.23;;;15.50;;
19985;SDS011;10154;52.474;10.768;2024-03-08T04:08:13;37.33;;;14.50;;
19985;SDS011;10154;52.474;10.768;2024-03-08T04:10:39;43.70;;;15.40;;
19985;SDS011;10154;52.474;10.768;2024-03-08T04:13:06;40.80;;;15.67;;
19985;SDS011;10154;52.474;10.768;2024-03-08T04:15:32;42.63;;;15.27;;
19985;SDS011;10154;52.474;10.768;2024-03-08T04:17:57;38.33;;;14.43;;
19985;SDS011;10154;52.474;10.768;2024-03-08T04:20:25;38.47;;;15.73;;
19985;SDS011;10154;52.474;10.768;2024-03-08T04:22:50;39.00;;;15.00;;
19985;SDS011;10154;52.474;10.768;2024-03-08T04:25:16;40.83;;;15.30;;
19985;SDS011;10154;52.474;10.768;2024-03-08T04:27:41;37.67;;;15.70;;
19985;SDS011;10154;52.474;10.768;2024-03-08T04:30:06;40.73;;;15.33;;
19985;SDS011;10154;52.474;10.768;2024-03-08T04:32:33;39.47;;;15.10;;
19985;SDS011;10154;52.474;10.768;2024-03-08T04:34:58;44.07;;;15.97;;
19985;SDS011;10154;52.474;10.768;2024-03-08T04:37:26;42.57;;;15.20;;
19985;SDS011;10154;52.474;10.768;2024-03-08T04:39:51;40.70;;;16.27;;
19985;SDS011;10154;52.474;10.768;2024-03-08T04:42:17;39.13;;;15.40;;
19985;SDS011;10154;52.474;10.768;2024-03-08T04:44:42;44.30;;;15.33;;
19985;SDS011;10154;52.474;10.768;2024-03-08T04:47:08;36.70;;;15.33;;
19985;SDS011;10154;52.474;10.768;2024-03-08T04:49:33;37.23;;;14.43;;
19985;SDS011;10154;52.474;10.768;2024-03-08T04:52:02;42.47;;;15.57;;
19985;SDS011;10154;52.474;10.768;2024-03-08T04:54:28;36.20;;;14.93;;
19985;SDS011;10154;52.474;10.768;2024-03-08T04:56:54;37.37;;;15.33;;
19985;SDS011;10154;52.474;10.768;2024-03-08T04:59:19;40.13;;;15.27;;
19985;SDS011;10154;52.474;10.768;2024-03-08T05:01:45;39.30;;;14.73;;
19985;SDS011;10154;52.474;10.768;2024-03-08T05:04:10;42.57;;;15.57;;
19985;SDS011;10154;52.474;10.768;2024-03-08T05:06:35;37.57;;;15.00;;
19985;SDS011;10154;52.474;10.768;2024-03-08T05:09:01;42.90;;;15.10;;
19985;SDS011;10154;52.474;10.768;2024-03-08T05:11:41;43.30;;;15.77;;
19985;SDS011;10154;52.474;10.768;2024-03-08T05:14:10;42.20;;;15.97;;
19985;SDS011;10154;52.474;10.768;2024-03-08T05:16:37;41.87;;;16.00;;
19985;SDS011;10154;52.474;10.768;2024-03-08T05:19:02;45.33;;;15.77;;
19985;SDS011;10154;52.474;10.768;2024-03-08T05:21:28;40.77;;;15.63;;
19985;SDS011;10154;52.474;10.768;2024-03-08T05:23:54;40.87;;;15.03;;
19985;SDS011;10154;52.474;10.768;2024-03-08T05:26:19;44.27;;;16.20;;
19985;SDS011;10154;52.474;10.768;2024-03-08T05:28:45;44.47;;;15.47;;
19985;SDS011;10154;52.474;10.768;2024-03-08T05:31:10;42.50;;;15.60;;
19985;SDS011;10154;52.474;10.768;2024-03-08T05:33:43;39.40;;;15.37;;
19985;SDS011;10154;52.474;10.768;2024-03-08T05:36:09;41.13;;;14.90;;
19985;SDS011;10154;52.474;10.768;2024-03-08T05:38:36;43.13;;;15.90;;
19985;SDS011;10154;52.474;10.768;2024-03-08T05:41:01;48.37;;;16.93;;
19985;SDS011;10154;52.474;10.768;2024-03-08T05:43:27;44.00;;;16.70;;
19985;SDS011;10154;52.474;10.768;2024-03-08T05:45:52;45.13;;;16.43;;
19985;SDS011;10154;52.474;10.768;2024-03-08T05:48:18;44.07;;;16.80;;
19985;SDS011;10154;52.474;10.768;2024-03-08T05:50:43;38.63;;;15.83;;
19985;SDS011;10154;52.474;10.768;2024-03-08T05:53:09;43.27;;;15.70;;
19985;SDS011;10154;52.474;10.768;2024-03-08T05:55:34;42.97;;;16.00;;
19985;SDS011;10154;52.474;10.768;2024-03-08T05:58:00;40.37;;;16.27;;
19985;SDS011;10154;52.474;10.768;2024-03-08T06:00:26;44.53;;;16.07;;
19985;SDS011;10154;52.474;10.768;2024-03-08T06:02:52;42.37;;;16.80;;
19985;SDS011;10154;52.474;10.768;2024-03-08T06:05:17;47.23;;;16.00;;
19985;SDS011;10154;52.474;10.768;2024-03-08T06:07:42;44.07;;;16.87;;
19985;SDS011;10154;52.474;10.768;2024-03-08T06:10:08;39.17;;;16.23;;
19985;SDS011;10154;52.474;10.768;2024-03-08T06:12:38;45.00;;;16.43;;
19985;SDS011;10154;52.474;10.768;2024-03-08T06:15:07;44.07;;;16.40;;
19985;SDS011;10154;52.474;10.768;2024-03-08T06:17:40;42.93;;;16.73;;
19985;SDS011;10154;52.474;10.768;2024-03-08T06:20:06;44.00;;;16.83;;
19985;SDS011;10154;52.474;10.768;2024-03-08T06:22:37;43.17;;;16.83;;
19985;SDS011;10154;52.474;10.768;2024-03-08T06:25:05;46.73;;;17.10;;
19985;SDS011;10154;52.474;10.768;2024-03-08T06:27:31;43.40;;;17.40;;
19985;SDS011;10154;52.474;10.768;2024-03-08T06:29:58;46.73;;;17.23;;
19985;SDS011;10154;52.474;10.768;2024-03-08T06:32:24;41.27;;;16.47;;
19985;SDS011;10154;52.474;10.768;2024-03-08T06:34:50;45.40;;;16.57;;
19985;SDS011;10154;52.474;10.768;2024-03-08T06:37:16;39.77;;;15.90;;
19985;SDS011;10154;52.474;10.768;2024-03-08T06:39:46;45.87;;;17.73;;
19985;SDS011;10154;52.474;10.768;2024-03-08T06:42:16;44.60;;;17.30;;
19985;SDS011;10154;52.474;10.768;2024-03-08T06:44:41;44.40;;;17.60;;
19985;SDS011;10154;52.474;10.768;2024-03-08T06:47:13;44.60;;;17.07;;
19985;SDS011;10154;52.474;10.768;2024-03-08T06:49:40;49.13;;;18.33;;
19985;SDS011;10154;52.474;10.768;2024-03-08T06:52:05;46.40;;;17.97;;
19985;SDS011;10154;52.474;10.768;2024-03-08T06:54:31;47.23;;;18.00;;
19985;SDS011;10154;52.474;10.768;2024-03-08T06:56:57;48.90;;;17.97;;
19985;SDS011;10154;52.474;10.768;2024-03-08T06:59:22;45.30;;;18.30;;
19985;SDS011;10154;52.474;10.768;2024-03-08T07:01:48;44.17;;;17.80;;
19985;SDS011;10154;52.474;10.768;2024-03-08T07:04:13;41.20;;;16.97;;
19985;SDS011;10154;52.474;10.768;2024-03-08T07:06:38;46.03;;;17.30;;
19985;SDS011;10154;52.474;10.768;2024-03-08T07:09:05;48.47;;;17.73;;
19985;SDS011;10154;52.474;10.768;2024-03-08T07:11:31;46.13;;;18.37;;
19985;SDS011;10154;52.474;10.768;2024-03-08T07:13:56;44.40;;;17.40;;
19985;SDS011;10154;52.474;10.768;2024-03-08T07:16:23;48.87;;;18.30;;
19985;SDS011;10154;52.474;10.768;2024-03-08T07:18:48;49.70;;;19.13;;
19985;SDS011;10154;52.474;10.768;2024-03-08T07:21:17;42.80;;;17.77;;
19985;SDS011;10154;52.474;10.768;2024-03-08T07:23:43;50.43;;;19.20;;
19985;SDS011;10154;52.474;10.768;2024-03-08T07:26:18;46.33;;;19.33;;
19985;SDS011;10154;52.474;10.768;2024-03-08T07:28:45;47.40;;;19.67;;
19985;SDS011;10154;52.474;10.768;2024-03-08T07:31:10;47.10;;;18.67;;
19985;SDS011;10154;52.474;10.768;2024-03-08T07:33:50;43.17;;;17.80;;
19985;SDS011;10154;52.474;10.768;2024-03-08T07:36:16;50.30;;;19.57;;
19985;SDS011;10154;52.474;10.768;2024-03-08T07:38:41;45.37;;;18.60;;
19985;SDS011;10154;52.474;10.768;2024-03-08T07:41:07;49.33;;;19.33;;
19985;SDS011;10154;52.474;10.768;2024-03-08T07:43:32;45.70;;;18.60;;
19985;SDS011;10154;52.474;10.768;2024-03-08T07:46:00;47.80;;;18.23;;
19985;SDS011;10154;52.474;10.768;2024-03-08T07:48:25;52.13;;;19.27;;
19985;SDS011;10154;52.474;10.768;2024-03-08T07:50:52;47.90;;;19.63;;
19985;SDS011;10154;52.474;10.768;2024-03-08T07:53:17;45.90;;;19.17;;
19985;SDS011;10154;52.474;10.768;2024-03-08T07:55:42;45.30;;;18.37;;
19985;SDS011;10154;52.474;10.768;2024-03-08T07:58:09;44.73;;;19.20;;
19985;SDS011;10154;52.474;10.768;2024-03-08T08:00:36;43.90;;;18.83;;
19985;SDS011;10154;52.474;10.768;2024-03-08T08:03:01;44.23;;;18.90;;
19985;SDS011;10154;52.474;10.768;2024-03-08T08:05:27;36.53;;;17.27;;
19985;SDS011;10154;52.474;10.768;2024-03-08T08:07:53;40.77;;;18.47;;
19985;SDS011;10154;52.474;10.768;2024-03-08T08:10:18;38.77;;;16.67;;
19985;SDS011;10154;52.474;10.768;2024-03-08T08:12:47;37.50;;;17.20;;
19985;SDS011;10154;52.474;10.768;2024-03-08T08:15:16;40.67;;;17.30;;
19985;SDS011;10154;52.474;10.768;2024-03-08T08:17:42;39.60;;;17.57;;
19985;SDS011;10154;52.474;10.768;2024-03-08T08:20:11;36.60;;;16.73;;
19985;SDS011;10154;52.474;10.768;2024-03-08T08:22:38;37.07;;;17.10;;
19985;SDS011;10154;52.474;10.768;2024-03-08T08:25:08;36.07;;;16.63;;
19985;SDS011;10154;52.474;10.768;2024-03-08T08:27:33;34.73;;;16.80;;
19985;SDS011;10154;52.474;10.768;2024-03-08T08:29:59;38.33;;;16.97;;
19985;SDS011;10154;52.474;10.768;2024-03-08T08:32:25;38.00;;;16.33;;
19985;SDS011;10154;52.474;10.768;2024-03-08T08:34:50;37.70;;;16.87;;
19985;SDS011;10154;52.474;10.768;2024-03-08T08:37:15;34.07;;;15.60;;
19985;SDS011;10154;52.474;10.768;2024-03-08T08:39:41;35.03;;;16.30;;
19985;SDS011;10154;52.474;10.768;2024-03-08T08:42:07;34.03;;;16.47;;
19985;SDS011;10154;52.474;10.768;2024-03-08T08:44:34;33.40;;;16.13;;
19985;SDS011;10154;52.474;10.768;2024-03-08T08:47:00;33.97;;;16.23;;
19985;SDS011;10154;52.474;10.768;2024-03-08T08:49:25;32.23;;;15.10;;
19985;SDS011;10154;52.474;10.768;2024-03-08T08:51:51;31.57;;;15.93;;
19985;SDS011;10154;52.474;10.768;2024-03-08T08:54:17;30.77;;;15.13;;
19985;SDS011;10154;52.474;10.768;2024-03-08T08:56:42;35.13;;;16.60;;
19985;SDS011;10154;52.474;10.768;2024-03-08T08:59:12;37.80;;;16.80;;
19985;SDS011;10154;52.474;10.768;2024-03-08T09:01:44;32.50;;;16.57;;
19985;SDS011;10154;52.474;10.768;2024-03-08T09:04:12;35.87;;;16.53;;
19985;SDS011;10154;52.474;10.768;2024-03-08T09:06:37;32.63;;;16.93;;
19985;SDS011;10154;52.474;10.768;2024-03-08T09:09:03;32.33;;;16.13;;
19985;SDS011;10154;52.474;10.768;2024-03-08T09:11:29;33.63;;;16.80;;
19985;SDS011;10154;52.474;10.768;2024-03-08T09:13:54;38.63;;;17.57;;
19985;SDS011;10154;52.474;10.768;2024-03-08T09:16:20;34.77;;;16.73;;
19985;SDS011;10154;52.474;10.768;2024-03-08T09:18:45;34.93;;;16.73;;
19985;SDS011;10154;52.474;10.768;2024-03-08T09:21:10;35.30;;;16.30;;
19985;SDS011;10154;52.474;10.768;2024-03-08T09:23:38;33.83;;;17.67;;
19985;SDS011;10154;52.474;10.768;2024-03-08T09:26:03;32.47;;;16.73;;
19985;SDS011;10154;52.474;10.768;2024-03-08T09:28:29;30.07;;;16.13;;
19985;SDS011;10154;52.474;10.768;2024-03-08T09:30:54;38.33;;;17.40;;
19985;SDS011;10154;52.474;10.768;2024-03-08T09:33:20;30.98;;;16.83;;
19985;SDS011;10154;52.474;10.768;2024-03-08T09:35:46;35.08;;;17.17;;
19985;SDS011;10154;52.474;10.768;2024-03-08T09:38:12;36.65;;;17.63;;
19985;SDS011;10154;52.474;10.768;2024-03-08T09:40:38;33.80;;;18.25;;
19985;SDS011;10154;52.474;10.768;2024-03-08T09:43:06;33.30;;;17.13;;
19985;SDS011;10154;52.474;10.768;2024-03-08T09:45:32;31.48;;;17.27;;
19985;SDS011;10154;52.474;10.768;2024-03-08T09:48:01;30.38;;;16.95;;
19985;SDS011;10154;52.474;10.768;2024-03-08T09:50:26;34.97;;;16.90;;
19985;SDS011;10154;52.474;10.768;2024-03-08T09:52:54;31.88;;;17.65;;
19985;SDS011;10154;52.474;10.768;2024-03-08T09:55:22;35.17;;;17.88;;
19985;SDS011;10154;52.474;10.768;2024-03-08T09:57:47;35.95;;;18.08;;
19985;SDS011;10154;52.474;10.768;2024-03-08T10:00:33;37.25;;;18.50;;
19985;SDS011;10154;52.474;10.768;2024-03-08T10:03:01;35.03;;;18.48;;
19985;SDS011;10154;52.474;10.768;2024-03-08T10:05:27;35.00;;;18.50;;
19985;SDS011;10154;52.474;10.768;2024-03-08T10:07:53;37.67;;;17.65;;
19985;SDS011;10154;52.474;10.768;2024-03-08T10:10:18;32.03;;;17.98;;
19985;SDS011;10154;52.474;10.768;2024-03-08T10:12:43;38.70;;;18.60;;
19985;SDS011;10154;52.474;10.768;2024-03-08T10:15:10;33.33;;;17.27;;
19985;SDS011;10154;52.474;10.768;2024-03-08T10:17:37;35.63;;;18.15;;
19985;SDS011;10154;52.474;10.768;2024-03-08T10:20:06;30.60;;;17.73;;
19985;SDS011;10154;52.474;10.768;2024-03-08T10:22:39;34.25;;;18.27;;
19985;SDS011;10154;52.474;10.768;2024-03-08T10:25:07;30.48;;;17.33;;
19985;SDS011;10154;52.474;10.768;2024-03-08T10:27:35;31.60;;;17.50;;
19985;SDS011;10154;52.474;10.768;2024-03-08T10:30:00;33.35;;;17.90;;
19985;SDS011;10154;52.474;10.768;2024-03-08T10:32:26;33.00;;;17.30;;
19985;SDS011;10154;52.474;10.768;2024-03-08T10:34:51;35.10;;;18.38;;
19985;SDS011;10154;52.474;10.768;2024-03-08T10:37:17;32.22;;;17.48;;
19985;SDS011;10154;52.474;10.768;2024-03-08T10:39:50;36.13;;;17.98;;
19985;SDS011;10154;52.474;10.768;2024-03-08T10:42:35;32.03;;;16.33;;
19985;SDS011;10154;52.474;10.768;2024-03-08T10:45:08;30.52;;;17.35;;
19985;SDS011;10154;52.474;10.768;2024-03-08T10:47:40;30.67;;;16.23;;
19985;SDS011;10154;52.474;10.768;2024-03-08T10:50:10;31.17;;;15.90;;
19985;SDS011;10154;52.474;10.768;2024-03-08T10:52:41;30.65;;;16.98;;
19985;SDS011;10154;52.474;10.768;2024-03-08T10:55:06;28.08;;;15.82;;
19985;SDS011;10154;52.474;10.768;2024-03-08T10:57:37;28.67;;;16.95;;
19985;SDS011;10154;52.474;10.768;2024-03-08T11:00:03;29.65;;;17.02;;
19985;SDS011;10154;52.474;10.768;2024-03-08T11:02:32;28.92;;;16.08;;
19985;SDS011;10154;52.474;10.768;2024-03-08T11:04:58;28.05;;;15.90;;
19985;SDS011;10154;52.474;10.768;2024-03-08T11:07:24;28.67;;;16.73;;
19985;SDS011;10154;52.474;10.768;2024-03-08T11:09:52;31.30;;;17.02;;
19985;SDS011;10154;52.474;10.768;2024-03-08T11:12:27;27.73;;;15.65;;
19985;SDS011;10154;52.474;10.768;2024-03-08T11:15:00;29.83;;;17.83;;
19985;SDS011;10154;52.474;10.768;2024-03-08T11:17:39;27.58;;;15.98;;
19985;SDS011;10154;52.474;10.768;2024-03-08T11:20:12;29.42;;;15.52;;
19985;SDS011;10154;52.474;10.768;2024-03-08T11:22:41;31.65;;;16.50;;
19985;SDS011;10154;52.474;10.768;2024-03-08T11:25:30;24.77;;;14.32;;
19985;SDS011;10154;52.474;10.768;2024-03-08T11:31:21;29.60;;;16.73;;
19985;SDS011;10154;52.474;10.768;2024-03-08T11:33:30;27.25;;;15.75;;
19985;SDS011;10154;52.474;10.768;2024-03-08T11:36:11;28.77;;;15.82;;
19985;SDS011;10154;52.474;10.768;2024-03-08T11:39:00;26.45;;;14.88;;
19985;SDS011;10154;52.474;10.768;2024-03-08T11:41:34;27.48;;;14.95;;
19985;SDS011;10154;52.474;10.768;2024-03-08T11:44:01;27.02;;;14.18;;
19985;SDS011;10154;52.474;10.768;2024-03-08T11:46:32;27.83;;;14.80;;
19985;SDS011;10154;52.474;10.768;2024-03-08T11:48:59;24.77;;;15.57;;
19985;SDS011;10154;52.474;10.768;2024-03-08T11:51:25;28.10;;;16.42;;
19985;SDS011;10154;52.474;10.768;2024-03-08T11:53:51;24.05;;;13.70;;
19985;SDS011;10154;52.474;10.768;2024-03-08T11:56:17;27.55;;;14.73;;
19985;SDS011;10154;52.474;10.768;2024-03-08T11:58:52;27.52;;;15.60;;
19985;SDS011;10154;52.474;10.768;2024-03-08T12:01:19;25.33;;;14.05;;
19985;SDS011;10154;52.474;10.768;2024-03-08T12:03:44;27.42;;;15.02;;
19985;SDS011;10154;52.474;10.768;2024-03-08T12:06:18;27.33;;;15.20;;
19985;SDS011;10154;52.474;10.768;2024-03-08T12:08:43;26.92;;;14.48;;
19985;SDS011;10154;52.474;10.768;2024-03-08T12:11:08;28.08;;;15.52;;
19985;SDS011;10154;52.474;10.768;2024-03-08T12:13:35;29.60;;;15.57;;
19985;SDS011;10154;52.474;10.768;2024-03-08T12:16:03;27.75;;;15.80;;
19985;SDS011;10154;52.474;10.768;2024-03-08T12:18:32;29.25;;;16.13;;
19985;SDS011;10154;52.474;10.768;2024-03-08T12:21:11;28.08;;;15.50;;
19985;SDS011;10154;52.474;10.768;2024-03-08T12:23:37;26.63;;;14.13;;
19985;SDS011;10154;52.474;10.768;2024-03-08T12:26:13;32.90;;;16.77;;
19985;SDS011;10154;52.474;10.768;2024-03-08T12:28:40;28.35;;;14.98;;
19985;SDS011;10154;52.474;10.768;2024-03-08T12:31:07;27.63;;;15.02;;
19985;SDS011;10154;52.474;10.768;2024-03-08T12:33:36;23.92;;;14.07;;
19985;SDS011;10154;52.474;10.768;2024-03-08T12:36:17;28.02;;;15.63;;
19985;SDS011;10154;52.474;10.768;2024-03-08T12:38:46;28.65;;;15.60;;
19985;SDS011;10154;52.474;10.768;2024-03-08T12:41:14;26.17;;;15.25;;
19985;SDS011;10154;52.474;10.768;2024-03-08T12:43:44;27.33;;;13.90;;
19985;SDS011;10154;52.474;10.768;2024-03-08T12:46:19;28.15;;;14.98;;
19985;SDS011;10154;52.474;10.768;2024-03-08T12:48:45;26.15;;;14.23;;
19985;SDS011;10154;52.474;10.768;2024-03-08T12:51:14;24.67;;;14.55;;
19985;SDS011;10154;52.474;10.768;2024-03-08T12:53:44;24.58;;;14.20;;
19985;SDS011;10154;52.474;10.768;2024-03-08T12:56:10;25.25;;;13.90;;
19985;SDS011;10154;52.474;10.768;2024-03-08T12:58:36;24.25;;;14.02;;
19985;SDS011;10154;52.474;10.768;2024-03-08T13:01:03;28.67;;;15.52;;
19985;SDS011;10154;52.474;10.768;2024-03-08T13:03:32;25.63;;;13.75;;
19985;SDS011;10154;52.474;10.768;2024-03-08T13:05:59;24.58;;;14.20;;
19985;SDS011;10154;52.474;10.768;2024-03-08T13:08:25;27.52;;;13.07;;
19985;SDS011;10154;52.474;10.768;2024-03-08T13:10:53;24.80;;;14.25;;
19985;SDS011;10154;52.474;10.768;2024-03-08T13:13:19;24.77;;;13.45;;
19985;SDS011;10154;52.474;10.768;2024-03-08T13:15:44;23.50;;;14.13;;
19985;SDS011;10154;52.474;10.768;2024-03-08T13:18:10;24.20;;;12.70;;
19985;SDS011;10154;52.474;10.768;2024-03-08T13:20:36;21.90;;;12.00;;
19985;SDS011;10154;52.474;10.768;2024-03-08T13:23:04;24.20;;;12.82;;
19985;SDS011;10154;52.474;10.768;2024-03-08T13:25:30;22.48;;;12.57;;
19985;SDS011;10154;52.474;10.768;2024-03-08T13:27:56;23.80;;;12.40;;
19985;SDS011;10154;52.474;10.768;2024-03-08T13:30:24;24.67;;;12.73;;
19985;SDS011;10154;52.474;10.768;2024-03-08T13:32:51;22.55;;;11.25;;
19985;SDS011;10154;52.474;10.768;2024-03-08T13:35:17;23.00;;;12.90;;
19985;SDS011;10154;52.474;10.768;2024-03-08T13:37:49;17.63;;;10.70;;
19985;SDS011;10154;52.474;10.768;2024-03-08T13:40:14;24.23;;;12.43;;
19985;SDS011;10154;52.474;10.768;2024-03-08T13:42:43;27.25;;;12.38;;
19985;SDS011;10154;52.474;10.768;2024-03-08T13:45:09;22.05;;;11.90;;
19985;SDS011;10154;52.474;10.768;2024-03-08T13:47:39;21.80;;;12.32;;
19985;SDS011;10154;52.474;10.768;2024-03-08T13:50:06;25.00;;;12.82;;
19985;SDS011;10154;52.474;10.768;2024-03-08T13:52:33;23.40;;;12.27;;
19985;SDS011;10154;52.474;10.768;2024-03-08T13:54:59;23.80;;;11.82;;
19985;SDS011;10154;52.474;10.768;2024-03-08T13:57:25;20.58;;;11.82;;
19985;SDS011;10154;52.474;10.768;2024-03-08T13:59:52;21.10;;;11.75;;
19985;SDS011;10154;52.474;10.768;2024-03-08T14:02:17;23.85;;;11.93;;
19985;SDS011;10154;52.474;10.768;2024-03-08T14:04:43;24.30;;;10.90;;
19985;SDS011;10154;52.474;10.768;2024-03-08T14:07:08;22.45;;;10.98;;
19985;SDS011;10154;52.474;10.768;2024-03-08T14:09:36;23.17;;;10.95;;
19985;SDS011;10154;52.474;10.768;2024-03-08T14:12:05;19.35;;;10.27;;